Messwerte Dakar

Temperatur

Temperatur
°C
1614639600 23.00 23.00 18
1614643200 0.00 0.00 18
1614646800 1.00 1.00
1614650400 2.00 2.00
1614654000 3.00 3.00 18
1614657600 4.00 4.00
1614661200 5.00 5.00
1614664800 6.00 6.00 18
1614668400 7.00 7.00 18
1614672000 8.00 8.00 18
1614675600 9.00 9.00 20
1614679200 10.00 10.00 21
1614682800 11.00 11.00 23
1614686400 12.00 12.00 23
1614690000 13.00 13.00 23
1614693600 14.00 14.00 24
1614697200 15.00 15.00 24
1614700800 16.00 16.00 24
1614704400 17.00 17.00 24
1614708000 18.00 18.00 23
1614711600 19.00 19.00 21
1614715200 20.00 20.00 21
1614718800 21.00 21.00 20
1614722400 22.00 22.00 20

Aktuellste Messwerte

Wettercharakter
Wetter: meist klar
Temperatur
20 °C
Feuchtigkeit
75 %
Wind
15 km/hWindrichtung: Nord
Luftdruck
1011 hPa
Messzeit: 2. März 2021, 22.00Datenquelle: METAR

Weitere Messstationen in der Nähe

Messstation Temperatur Entfernung
Diourbel 28 °C 137 km
Kaolack 31 °C 168 km
Saint-Louis 24 °C 192 km
Banjul 24 °C 194 km
Linguere 30 °C 265 km
Cap Skirring 23 °C 271 km
Ziguinchor 27 °C 276 km

Wind

Windrichtung Böen Mittelwind
° km/h km/h
1614639600 23.00 22.00 - 23.00 360° 10
1614643200 0.00 23.00 - 0.00 20° 15
1614646800 1.00 0.00 - 1.00
1614650400 2.00 1.00 - 2.00
1614654000 3.00 2.00 - 3.00 20° 20
1614657600 4.00 3.00 - 4.00
1614661200 5.00 4.00 - 5.00
1614664800 6.00 5.00 - 6.00 40° 15
1614668400 7.00 6.00 - 7.00 360° 15
1614672000 8.00 7.00 - 8.00 360° 20
1614675600 9.00 8.00 - 9.00 20° 15
1614679200 10.00 9.00 - 10.00 40° 15
1614682800 11.00 10.00 - 11.00 20° 20
1614686400 12.00 11.00 - 12.00 20° 20
1614690000 13.00 12.00 - 13.00 20° 20
1614693600 14.00 13.00 - 14.00 20° 20
1614697200 15.00 14.00 - 15.00 20° 20
1614700800 16.00 15.00 - 16.00 360° 20
1614704400 17.00 16.00 - 17.00 360° 20
1614708000 18.00 17.00 - 18.00 360° 20
1614711600 19.00 18.00 - 19.00 360° 20
1614715200 20.00 19.00 - 20.00 360° 20
1614718800 21.00 20.00 - 21.00 360° 20
1614722400 22.00 21.00 - 22.00 360° 15

Ihre Wetterstation

Fehlt Ihre Wetterstation auf unserem Portal?

Schreiben Sie an network@meteonews.ch

Klima

Wann ist es am wärmsten? Wann regnet es am wenigsten? Unsere Klimadaten geben Auskunft.